createdAt,value
2022-11-05T09:00:31.360Z,68.24
2022-11-05T09:02:34.232Z,67.72
2022-11-05T09:04:36.967Z,67.29
2022-11-05T09:06:39.674Z,67.01
2022-11-05T09:08:42.374Z,66.65
2022-11-05T09:10:46.075Z,66.17
2022-11-05T09:12:48.722Z,66.11
2022-11-05T09:14:51.413Z,65.98
2022-11-05T09:16:55.582Z,65.55
2022-11-05T09:18:58.225Z,65.32
2022-11-05T09:21:00.958Z,65.34
2022-11-05T09:23:03.681Z,65.31
2022-11-05T09:25:07.653Z,64.92
2022-11-05T09:27:11.795Z,64.91
2022-11-05T09:29:14.631Z,64.89
2022-11-05T09:31:17.563Z,64.52
2022-11-05T09:33:24.972Z,64.76
2022-11-05T09:35:27.689Z,64.57
2022-11-05T09:37:30.733Z,64.27
2022-11-05T09:39:33.437Z,64.22
2022-11-05T09:41:39.873Z,64.09
2022-11-05T09:43:46.545Z,64.07
2022-11-05T09:45:52.761Z,63.92
2022-11-05T09:48:00.395Z,64.08
2022-11-05T09:50:09.059Z,63.99
2022-11-05T09:52:15.822Z,63.70
2022-11-05T09:54:18.771Z,63.40
2022-11-05T09:56:25.068Z,63.35
2022-11-05T09:58:37.263Z,63.44
2022-11-05T10:00:41.314Z,63.42
2022-11-05T10:02:49.679Z,63.11
2022-11-05T10:04:55.797Z,62.81
2022-11-05T10:07:01.834Z,62.88
2022-11-05T10:09:10.067Z,62.93
2022-11-05T10:11:18.094Z,62.49
2022-11-05T10:13:26.500Z,62.46
2022-11-05T10:15:34.728Z,62.22
2022-11-05T10:17:41.151Z,62.45
2022-11-05T10:19:48.388Z,62.39
2022-11-05T10:22:06.104Z,62.15
2022-11-05T10:24:16.710Z,61.86
2022-11-05T10:26:21.668Z,61.93
2022-11-05T10:28:28.746Z,61.54
2022-11-05T10:30:31.630Z,61.71
2022-11-05T10:32:38.345Z,61.48
2022-11-05T10:34:41.245Z,61.14
2022-11-05T10:36:44.581Z,61.20
2022-11-05T10:38:47.294Z,60.91
2022-11-05T10:40:58.626Z,61.09
2022-11-05T10:43:06.773Z,60.72
2022-11-05T10:45:22.635Z,60.85
2022-11-05T10:47:39.494Z,60.87
2022-11-05T10:49:51.839Z,60.76
2022-11-05T10:51:58.056Z,60.51
2022-11-05T10:54:06.403Z,60.50
2022-11-05T10:56:32.596Z,60.14
2022-11-05T10:58:37.287Z,60.11
2022-11-05T11:00:40.457Z,60.37
2022-11-05T11:02:44.038Z,60.20
2022-11-05T11:04:53.033Z,59.95
2022-11-05T11:06:57.438Z,59.39
2022-11-05T11:09:03.184Z,59.62
2022-11-05T11:11:11.735Z,59.51
2022-11-05T11:13:22.237Z,59.41
2022-11-05T11:15:28.352Z,59.17
2022-11-05T11:17:33.576Z,59.26
2022-11-05T11:19:37.509Z,59.07
2022-11-05T11:21:41.602Z,58.99
2022-11-05T11:23:54.116Z,59.14
2022-11-05T11:26:01.468Z,58.77
2022-11-05T11:28:07.318Z,58.80
2022-11-05T11:30:20.641Z,58.85
2022-11-05T11:32:29.051Z,58.90
2022-11-05T11:34:35.158Z,58.78
2022-11-05T11:36:44.678Z,58.53
2022-11-05T11:38:47.598Z,58.55
2022-11-05T11:40:50.346Z,58.36
2022-11-05T11:42:56.482Z,58.48
2022-11-05T11:45:04.941Z,58.21
2022-11-05T11:47:14.096Z,58.03
2022-11-05T11:49:33.232Z,58.05
2022-11-05T11:51:40.585Z,58.18
2022-11-05T11:53:43.560Z,58.23
2022-11-05T11:56:00.947Z,57.88
2022-11-05T11:58:07.799Z,57.90
2022-11-05T12:00:11.384Z,57.79
2022-11-05T12:02:47.690Z,57.85
2022-11-05T12:05:16.952Z,57.77
2022-11-05T12:07:32.865Z,57.80
2022-11-05T12:09:52.581Z,57.67
2022-11-05T12:12:04.026Z,57.67
2022-11-05T12:14:17.922Z,57.45
2022-11-05T12:16:31.083Z,57.55
2022-11-05T12:18:42.840Z,57.43
2022-11-05T12:21:05.953Z,57.37
2022-11-05T12:23:33.462Z,57.44
2022-11-05T12:25:43.998Z,57.53
2022-11-05T12:28:02.213Z,57.31
2022-11-05T12:30:09.181Z,57.30
2022-11-05T12:32:47.439Z,57.20
2022-11-05T12:34:59.107Z,57.07
2022-11-05T12:37:13.312Z,57.01
2022-11-05T12:39:36.446Z,56.89
2022-11-05T12:41:48.092Z,57.23
2022-11-05T12:44:06.313Z,56.79
2022-11-05T12:46:21.905Z,57.04
2022-11-05T12:48:54.779Z,56.67
2022-11-05T12:51:07.508Z,56.91
2022-11-05T12:53:24.570Z,56.77
2022-11-05T12:55:31.083Z,56.71
2022-11-05T12:57:39.838Z,56.84
2022-11-05T12:59:51.281Z,56.70
2022-11-05T13:02:01.902Z,56.85
2022-11-05T13:04:12.435Z,56.70
2022-11-05T13:06:20.135Z,56.35
2022-11-05T13:08:26.845Z,56.27
2022-11-05T13:10:33.809Z,56.07
2022-11-05T13:12:41.086Z,55.87
2022-11-05T13:14:48.197Z,55.75
2022-11-05T13:16:54.637Z,55.62
2022-11-05T13:19:01.130Z,55.35
2022-11-05T13:21:07.929Z,55.19
2022-11-05T13:23:18.785Z,54.85
2022-11-05T13:25:25.224Z,55.09
2022-11-05T13:27:45.039Z,54.37
2022-11-05T13:29:51.099Z,53.91
2022-11-05T13:31:59.922Z,53.89
2022-11-05T13:34:05.768Z,53.92
2022-11-05T13:36:32.570Z,54.12
2022-11-05T13:38:54.370Z,53.87
2022-11-05T13:41:09.574Z,53.86
2022-11-05T13:43:45.140Z,53.50
2022-11-05T13:46:23.742Z,53.30
2022-11-05T13:48:45.761Z,53.43
2022-11-05T13:51:19.991Z,53.20
2022-11-05T13:53:47.146Z,53.04
2022-11-05T13:56:00.546Z,52.75
2022-11-05T13:58:50.818Z,52.55
2022-11-05T14:01:06.274Z,52.67
2022-11-05T14:03:18.069Z,52.52
2022-11-05T14:05:29.672Z,52.36
2022-11-05T14:07:35.315Z,52.32
2022-11-05T14:09:40.213Z,51.69
2022-11-05T14:11:50.328Z,51.76
2022-11-05T14:13:58.029Z,51.67
2022-11-05T14:16:06.467Z,51.78
2022-11-05T14:18:39.838Z,51.89
2022-11-05T14:20:59.075Z,51.27
2022-11-05T14:23:38.565Z,51.59
2022-11-05T14:25:55.682Z,51.55
2022-11-05T14:28:00.050Z,51.49
2022-11-05T14:30:24.000Z,51.19
2022-11-05T14:32:28.892Z,51.31
2022-11-05T14:34:49.351Z,51.05
2022-11-05T14:37:25.203Z,50.79
2022-11-05T14:39:29.992Z,50.63
2022-11-05T14:41:33.018Z,50.79
2022-11-05T14:43:37.163Z,50.64
2022-11-05T14:45:41.849Z,50.71
2022-11-05T14:47:54.691Z,50.74
2022-11-05T14:50:02.780Z,50.31
2022-11-05T14:52:11.202Z,50.63
2022-11-05T14:54:23.989Z,50.31
2022-11-05T14:56:26.975Z,50.58
2022-11-05T14:58:35.482Z,50.43
2022-11-05T15:00:50.266Z,50.07
2022-11-05T15:02:58.291Z,49.96
2022-11-05T15:05:37.091Z,50.12
2022-11-05T15:07:39.837Z,49.88
2022-11-05T15:09:45.589Z,50.13
2022-11-05T15:12:09.358Z,49.99
2022-11-05T15:14:22.632Z,49.65
2022-11-05T15:16:33.857Z,49.80
2022-11-05T15:18:44.212Z,49.70
2022-11-05T15:20:49.464Z,49.53
2022-11-05T15:22:59.160Z,49.79
2022-11-05T15:25:02.598Z,49.42
2022-11-05T15:27:12.741Z,49.44
2022-11-05T15:29:18.784Z,49.49
2022-11-05T15:31:30.170Z,49.47
2022-11-05T15:33:33.719Z,49.46
2022-11-05T15:35:40.125Z,49.16
2022-11-05T15:37:53.389Z,49.27
2022-11-05T15:39:58.771Z,49.25
2022-11-05T15:42:05.766Z,49.17
2022-11-05T15:44:25.042Z,49.29
2022-11-05T15:46:29.813Z,49.47
2022-11-05T15:48:33.153Z,49.55
2022-11-05T15:50:36.130Z,49.37
2022-11-05T15:52:42.249Z,49.46
2022-11-05T15:54:45.763Z,49.44
2022-11-05T15:56:52.847Z,49.30
2022-11-05T15:58:59.884Z,49.39
2022-11-05T16:01:02.633Z,49.21
2022-11-05T16:03:13.809Z,49.17
2022-11-05T16:05:16.978Z,49.43
2022-11-05T16:07:20.386Z,49.34
2022-11-05T16:09:25.846Z,49.52
2022-11-05T16:11:28.694Z,49.20
2022-11-05T16:13:36.571Z,49.29
2022-11-05T16:15:39.338Z,49.29
2022-11-05T16:17:54.478Z,49.34
2022-11-05T16:19:58.837Z,49.15
2022-11-05T16:22:03.707Z,49.34
2022-11-05T16:24:07.041Z,49.44
2022-11-05T16:28:55.071Z,49.40
2022-11-05T16:31:00.101Z,49.20
2022-11-05T16:33:08.843Z,49.21
2022-11-05T16:35:21.341Z,49.18
2022-11-05T16:37:25.998Z,49.17
2022-11-05T16:39:28.750Z,48.99
2022-11-05T16:41:31.466Z,49.12
2022-11-05T16:43:34.462Z,48.94
2022-11-05T16:45:41.472Z,48.81
2022-11-05T16:47:45.606Z,49.17
2022-11-05T16:49:49.123Z,49.04
2022-11-05T16:51:53.718Z,48.94
2022-11-05T16:53:56.443Z,48.89
2022-11-05T16:55:59.171Z,48.77
2022-11-05T16:58:01.978Z,48.95
2022-11-05T17:00:06.712Z,48.78
2022-11-05T17:02:11.620Z,48.65
2022-11-05T17:04:14.845Z,48.81
2022-11-05T17:06:18.831Z,48.83
2022-11-05T17:08:22.891Z,48.92
2022-11-05T17:10:27.222Z,48.86
2022-11-05T17:12:30.128Z,48.70
2022-11-05T17:14:32.977Z,48.78
2022-11-05T17:16:38.550Z,48.59
2022-11-05T17:18:42.566Z,48.66
2022-11-05T17:20:46.880Z,48.78
2022-11-05T17:22:49.599Z,48.68
2022-11-05T17:24:53.792Z,48.56
2022-11-05T17:26:56.509Z,48.96
2022-11-05T17:28:59.326Z,48.84
2022-11-05T17:31:03.355Z,48.85
2022-11-05T17:33:06.567Z,48.84
2022-11-05T17:35:12.155Z,48.82
2022-11-05T17:37:14.965Z,48.65
2022-11-05T17:39:17.693Z,48.61
2022-11-05T17:41:23.254Z,48.57
2022-11-05T17:43:26.165Z,48.58
2022-11-05T17:45:28.936Z,48.86
2022-11-05T17:47:31.731Z,48.59
2022-11-05T17:49:34.448Z,48.90
2022-11-05T17:51:37.125Z,48.52
2022-11-05T17:53:40.302Z,48.79
2022-11-05T17:55:43.883Z,48.81
2022-11-05T17:57:49.806Z,48.59
2022-11-05T17:59:52.510Z,48.91
2022-11-05T18:01:55.649Z,48.77
2022-11-05T18:04:02.454Z,48.83
2022-11-05T18:06:10.126Z,48.77
2022-11-05T18:08:13.246Z,48.69
2022-11-05T18:10:16.620Z,49.08
2022-11-05T18:12:19.269Z,48.75
2022-11-05T18:14:24.225Z,49.03
2022-11-05T18:16:27.077Z,48.75
2022-11-05T18:18:29.787Z,48.97
2022-11-05T18:20:32.509Z,49.10
2022-11-05T18:22:35.612Z,49.00
2022-11-05T18:24:38.465Z,48.76
2022-11-05T18:26:41.191Z,49.07
2022-11-05T18:28:44.570Z,49.00
2022-11-05T18:30:48.851Z,48.91
2022-11-05T18:32:52.099Z,48.92
2022-11-05T18:45:57.625Z,49.28
2022-11-05T18:48:01.065Z,49.51
2022-11-05T18:50:04.801Z,49.55
2022-11-05T18:52:07.501Z,49.12
2022-11-05T18:54:11.176Z,49.39
2022-11-05T18:56:16.270Z,49.10
2022-11-05T18:58:18.985Z,49.11
2022-11-05T19:00:21.888Z,49.16
2022-11-05T19:02:26.423Z,49.22
2022-11-05T19:04:30.498Z,49.26
2022-11-05T19:06:34.143Z,49.11
2022-11-05T19:08:37.049Z,49.11
2022-11-05T19:10:40.981Z,49.14
2022-11-05T19:12:43.675Z,48.81
2022-11-05T19:14:46.470Z,48.99
2022-11-05T19:16:49.250Z,49.00
2022-11-05T19:18:53.768Z,48.97
2022-11-05T19:20:56.784Z,49.09
2022-11-05T19:22:59.457Z,49.08
2022-11-05T19:25:02.131Z,48.83
2022-11-05T19:27:05.044Z,49.15
2022-11-05T19:29:07.817Z,48.78
2022-11-05T19:31:14.138Z,48.89
2022-11-05T19:33:16.999Z,49.23
2022-11-05T19:35:23.659Z,48.84
2022-11-05T19:37:26.546Z,48.85
2022-11-05T19:39:29.227Z,48.77
2022-11-05T19:41:32.297Z,49.00
2022-11-05T19:43:35.761Z,48.92
2022-11-05T19:45:44.687Z,49.16
2022-11-05T19:47:47.801Z,48.89
2022-11-05T19:49:50.578Z,48.92
2022-11-05T19:51:54.830Z,49.01
2022-11-05T19:53:59.761Z,48.93
2022-11-05T19:56:06.543Z,48.93
2022-11-05T19:58:09.653Z,48.97
2022-11-05T20:00:13.865Z,48.85
2022-11-05T20:02:16.807Z,49.03
2022-11-05T20:04:19.602Z,48.86
2022-11-05T20:06:25.644Z,48.89
2022-11-05T20:08:29.818Z,48.74
2022-11-05T20:10:32.568Z,49.07
2022-11-05T20:12:36.650Z,48.90
2022-11-05T20:14:39.304Z,49.07
2022-11-05T20:16:42.690Z,49.12
2022-11-05T20:18:45.367Z,48.95
2022-11-05T20:20:48.439Z,49.21
2022-11-05T20:22:53.278Z,49.25
2022-11-05T20:24:57.313Z,49.02
2022-11-05T20:27:00.274Z,49.20
2022-11-05T20:29:03.183Z,49.16
2022-11-05T20:31:07.928Z,48.90
2022-11-05T20:33:10.710Z,49.15
2022-11-05T20:35:13.585Z,49.20
2022-11-05T20:37:16.229Z,49.15
2022-11-05T20:39:19.273Z,48.90
2022-11-05T20:41:24.214Z,49.07
2022-11-05T20:43:30.301Z,48.94
2022-11-05T20:45:33.750Z,48.81
2022-11-05T20:47:37.434Z,49.05
2022-11-05T20:49:40.121Z,49.20
2022-11-05T20:51:43.329Z,48.73
2022-11-05T20:53:46.939Z,48.79
2022-11-05T20:55:50.001Z,49.00
2022-11-05T20:57:54.078Z,48.90
2022-11-05T20:59:56.754Z,48.83
2022-11-05T21:01:59.515Z,48.71
2022-11-05T21:04:02.984Z,49.02
2022-11-05T21:06:06.381Z,48.85
2022-11-05T21:08:09.268Z,48.71
2022-11-05T21:10:12.185Z,48.74
2022-11-05T21:12:14.832Z,48.58
2022-11-05T21:14:18.918Z,48.81
2022-11-05T21:16:21.949Z,48.85
2022-11-05T21:18:26.497Z,48.80
2022-11-05T21:20:29.322Z,48.78
2022-11-05T21:22:32.203Z,48.89
2022-11-05T21:24:35.463Z,48.88
2022-11-05T21:26:38.133Z,48.87
2022-11-05T21:28:42.513Z,48.71
2022-11-05T21:30:49.013Z,48.99
2022-11-05T21:32:52.953Z,48.81
2022-11-05T21:34:55.624Z,48.49
2022-11-05T21:36:58.301Z,48.76
2022-11-05T21:39:00.974Z,48.73
2022-11-05T21:41:05.150Z,48.60
2022-11-05T21:43:08.536Z,48.74
2022-11-05T21:45:11.975Z,48.96
2022-11-05T21:47:16.273Z,48.82
2022-11-05T21:49:19.136Z,48.90
2022-11-05T21:51:39.523Z,48.72
2022-11-05T21:54:05.346Z,49.06
2022-11-05T21:56:26.963Z,48.92
2022-11-05T21:58:47.221Z,48.67
2022-11-05T22:00:50.209Z,48.71
2022-11-05T22:02:54.322Z,49.15
2022-11-05T22:05:00.035Z,49.02
2022-11-05T22:07:04.400Z,48.97
2022-11-05T22:09:07.212Z,48.96
2022-11-05T22:11:10.076Z,49.05
2022-11-05T22:13:13.753Z,49.06
2022-11-05T22:15:16.414Z,48.85
2022-11-05T22:17:20.037Z,49.02
2022-11-05T22:19:24.858Z,48.84
2022-11-05T22:21:27.613Z,49.08
